createdAt,value
2019-03-31T00:02:24.620Z,14.53
2019-03-31T00:04:56.908Z,13.63
2019-03-31T00:07:29.416Z,14.10
2019-03-31T00:10:01.933Z,16.40
2019-03-31T00:12:34.031Z,16.27
2019-03-31T00:15:07.021Z,16.40
2019-03-31T00:17:39.374Z,15.93
2019-03-31T00:20:11.570Z,16.67
2019-03-31T00:22:43.847Z,16.13
2019-03-31T00:25:16.266Z,16.03
2019-03-31T00:27:51.066Z,16.03
2019-03-31T00:30:23.139Z,16.30
2019-03-31T00:32:56.098Z,17.20
2019-03-31T00:35:28.482Z,17.37
2019-03-31T00:38:00.462Z,17.07
2019-03-31T00:40:32.569Z,16.37
2019-03-31T00:43:05.021Z,14.60
2019-03-31T00:45:38.789Z,15.67
2019-03-31T00:48:10.806Z,15.70
2019-03-31T00:50:43.022Z,15.93
2019-03-31T00:53:15.088Z,15.10
2019-03-31T00:55:47.289Z,15.40
2019-03-31T00:58:19.633Z,15.27
2019-03-31T01:01:10.524Z,15.70
2019-03-31T01:03:47.337Z,15.80
2019-03-31T01:06:19.834Z,15.60
2019-03-31T01:08:52.268Z,15.20
2019-03-31T01:11:25.556Z,15.80
2019-03-31T01:13:57.815Z,14.73
2019-03-31T01:16:31.164Z,15.30
2019-03-31T01:19:03.391Z,15.60
2019-03-31T01:21:35.528Z,16.20
2019-03-31T01:24:07.592Z,15.43
2019-03-31T01:26:39.807Z,15.40
2019-03-31T01:29:16.208Z,15.40
2019-03-31T01:31:50.586Z,15.23
2019-03-31T01:34:22.548Z,14.93
2019-03-31T01:36:54.693Z,14.73
2019-03-31T01:39:28.332Z,14.60
2019-03-31T01:42:00.798Z,14.73
2019-03-31T01:44:33.000Z,14.47
2019-03-31T01:47:05.495Z,14.87
2019-03-31T01:49:37.524Z,15.17
2019-03-31T01:52:09.574Z,16.37
2019-03-31T01:54:41.592Z,15.87
2019-03-31T01:57:13.625Z,17.23
2019-03-31T01:59:45.796Z,16.73
2019-03-31T02:02:25.663Z,15.77
2019-03-31T02:04:57.821Z,15.20
2019-03-31T02:07:29.788Z,15.80
2019-03-31T02:10:01.821Z,16.07
2019-03-31T02:12:35.356Z,16.73
2019-03-31T02:15:07.648Z,19.43
2019-03-31T02:17:40.671Z,17.80
2019-03-31T02:20:12.621Z,16.80
2019-03-31T02:22:44.667Z,17.50
2019-03-31T02:25:16.734Z,16.63
2019-03-31T02:27:48.732Z,15.87
2019-03-31T02:30:20.691Z,16.13
2019-03-31T02:32:52.690Z,15.77
2019-03-31T02:35:24.654Z,17.10
2019-03-31T02:37:57.599Z,15.90
2019-03-31T02:40:29.598Z,16.43
2019-03-31T02:43:01.569Z,15.90
2019-03-31T02:45:33.506Z,16.23
2019-03-31T02:48:05.444Z,15.57
2019-03-31T02:50:45.728Z,15.77
2019-03-31T02:53:18.721Z,15.47
2019-03-31T02:55:51.307Z,17.23
2019-03-31T02:58:23.262Z,16.07
2019-03-31T03:00:55.873Z,16.17
2019-03-31T03:03:29.776Z,16.03
2019-03-31T03:06:02.858Z,16.30
2019-03-31T03:08:36.444Z,16.40
2019-03-31T03:11:10.135Z,17.53
2019-03-31T03:13:43.415Z,18.03
2019-03-31T03:16:22.174Z,18.43
2019-03-31T03:18:54.232Z,19.00
2019-03-31T03:21:26.421Z,18.80
2019-03-31T03:23:58.456Z,17.97
2019-03-31T03:26:30.396Z,17.93
2019-03-31T03:29:02.446Z,18.40
2019-03-31T03:31:34.573Z,18.47
2019-03-31T03:34:06.491Z,18.73
2019-03-31T03:36:42.786Z,18.50
2019-03-31T03:39:13.206Z,18.87
2019-03-31T03:41:45.190Z,18.03
2019-03-31T03:44:17.107Z,17.70
2019-03-31T03:46:49.069Z,17.73
2019-03-31T03:49:21.234Z,17.30
2019-03-31T03:51:53.056Z,18.40
2019-03-31T03:54:25.031Z,17.87
2019-03-31T03:56:56.924Z,17.73
2019-03-31T03:59:29.044Z,18.00
2019-03-31T04:02:01.063Z,18.70
2019-03-31T04:04:34.053Z,18.00
2019-03-31T04:07:06.053Z,17.47
2019-03-31T04:09:38.050Z,19.20
2019-03-31T04:12:10.071Z,17.33
2019-03-31T04:14:42.137Z,18.30
2019-03-31T04:17:14.320Z,18.00
2019-03-31T04:19:46.321Z,17.23
2019-03-31T04:22:18.159Z,17.73
2019-03-31T04:24:50.042Z,17.63
2019-03-31T04:27:22.000Z,18.70
2019-03-31T04:29:53.996Z,18.40
2019-03-31T04:32:25.945Z,17.43
2019-03-31T04:34:57.804Z,17.97
2019-03-31T04:37:29.657Z,18.03
2019-03-31T04:40:02.553Z,16.83
2019-03-31T04:42:34.509Z,17.60
2019-03-31T04:45:06.726Z,18.03
2019-03-31T04:47:38.681Z,16.93
2019-03-31T04:50:10.873Z,17.20
2019-03-31T04:52:42.681Z,17.40
2019-03-31T04:55:14.569Z,16.83
2019-03-31T04:57:46.468Z,16.57
2019-03-31T05:00:18.432Z,16.60
2019-03-31T05:02:50.318Z,16.17
2019-03-31T05:05:22.475Z,16.87
2019-03-31T05:07:54.437Z,16.70
2019-03-31T05:10:26.544Z,16.07
2019-03-31T05:12:58.895Z,16.60
2019-03-31T05:15:31.959Z,17.10
2019-03-31T05:18:03.893Z,17.57
2019-03-31T05:20:35.769Z,15.83
2019-03-31T05:23:07.649Z,16.67
2019-03-31T05:25:39.637Z,16.13
2019-03-31T05:28:11.693Z,16.97
2019-03-31T05:30:43.670Z,17.80
2019-03-31T05:33:15.921Z,17.20
2019-03-31T05:35:47.912Z,15.83
2019-03-31T05:38:19.841Z,18.97
2019-03-31T05:40:52.824Z,17.60
2019-03-31T05:43:24.773Z,18.40
2019-03-31T05:45:56.835Z,17.53
2019-03-31T05:48:28.724Z,17.13
2019-03-31T05:51:01.016Z,17.23
2019-03-31T05:53:32.936Z,17.30
2019-03-31T05:56:05.198Z,17.67
2019-03-31T05:58:37.184Z,17.23
2019-03-31T06:01:09.258Z,16.97
2019-03-31T06:03:42.107Z,16.53
2019-03-31T06:06:14.077Z,17.63
2019-03-31T06:08:46.049Z,17.60
2019-03-31T06:11:18.409Z,17.10
2019-03-31T06:13:50.361Z,17.27
2019-03-31T06:16:22.289Z,17.33
2019-03-31T06:18:54.132Z,17.07
2019-03-31T06:21:29.053Z,15.50
2019-03-31T06:24:00.004Z,17.37
2019-03-31T06:26:31.903Z,17.13
2019-03-31T06:29:03.864Z,17.33
2019-03-31T06:31:35.838Z,17.50
2019-03-31T06:34:08.072Z,17.73
2019-03-31T06:36:40.029Z,16.70
2019-03-31T06:39:12.061Z,16.90
2019-03-31T06:41:44.101Z,17.40
2019-03-31T06:44:16.048Z,16.97
2019-03-31T06:46:49.038Z,17.40
2019-03-31T06:49:20.920Z,17.23
2019-03-31T06:51:53.094Z,19.30
2019-03-31T06:54:25.053Z,17.47
2019-03-31T06:56:56.942Z,17.03
2019-03-31T06:59:28.853Z,16.37
2019-03-31T07:02:03.288Z,17.17
2019-03-31T07:04:35.450Z,17.00
2019-03-31T07:07:07.583Z,16.40
2019-03-31T07:09:39.590Z,17.03
2019-03-31T07:12:11.753Z,17.33
2019-03-31T07:14:43.800Z,17.10
2019-03-31T07:17:15.695Z,17.57
2019-03-31T07:19:47.557Z,16.43
2019-03-31T07:22:19.529Z,17.17
2019-03-31T07:24:51.572Z,17.60
2019-03-31T07:27:23.927Z,17.00
2019-03-31T07:29:56.098Z,16.00
2019-03-31T07:32:28.093Z,15.80
2019-03-31T07:35:00.362Z,16.40
2019-03-31T07:37:32.157Z,15.87
2019-03-31T07:40:04.686Z,16.70
2019-03-31T07:42:37.865Z,16.13
2019-03-31T07:45:10.521Z,16.77
2019-03-31T07:47:42.696Z,16.60
2019-03-31T07:50:15.545Z,16.30
2019-03-31T07:52:47.686Z,15.73
2019-03-31T07:55:20.608Z,16.40
2019-03-31T07:57:54.629Z,16.20
2019-03-31T08:00:27.864Z,15.13
2019-03-31T08:03:00.453Z,15.13
2019-03-31T08:05:36.014Z,14.57
2019-03-31T08:08:06.314Z,13.73
2019-03-31T08:10:38.334Z,13.07
2019-03-31T08:13:10.571Z,12.03
2019-03-31T08:15:42.587Z,12.23
2019-03-31T08:18:15.300Z,11.50
2019-03-31T08:20:47.370Z,11.97
2019-03-31T08:23:20.087Z,11.93
2019-03-31T08:25:52.833Z,11.20
2019-03-31T08:28:25.824Z,11.20
2019-03-31T08:30:57.848Z,11.47
2019-03-31T08:33:30.568Z,10.23
2019-03-31T08:36:03.980Z,10.20
2019-03-31T08:38:36.238Z,10.97
2019-03-31T08:41:08.264Z,10.13
2019-03-31T08:43:40.317Z,9.27
2019-03-31T08:46:12.230Z,9.50
2019-03-31T08:48:45.118Z,9.70
2019-03-31T08:51:17.799Z,9.83
2019-03-31T08:53:50.707Z,10.23
2019-03-31T08:56:22.758Z,9.20
2019-03-31T08:58:54.941Z,10.13
2019-03-31T09:01:27.549Z,10.20
2019-03-31T09:03:59.768Z,10.20
2019-03-31T09:06:32.093Z,9.97
2019-03-31T09:09:08.863Z,10.17
2019-03-31T09:11:41.028Z,10.43
2019-03-31T09:14:13.588Z,10.97
2019-03-31T09:16:45.733Z,9.70
2019-03-31T09:19:17.836Z,10.13
2019-03-31T09:21:50.203Z,10.70
2019-03-31T09:24:22.566Z,9.63
2019-03-31T09:26:54.600Z,10.83
2019-03-31T09:29:28.770Z,10.37
2019-03-31T09:32:01.367Z,9.93
2019-03-31T09:34:33.363Z,10.07
2019-03-31T09:37:05.547Z,9.80
2019-03-31T09:39:37.741Z,10.67
2019-03-31T09:42:09.725Z,11.47
2019-03-31T09:44:41.988Z,11.37
2019-03-31T09:47:13.991Z,11.43
2019-03-31T09:49:46.132Z,12.07
2019-03-31T09:52:18.009Z,12.17
2019-03-31T09:54:49.899Z,11.90
2019-03-31T09:57:22.445Z,12.43
2019-03-31T09:59:54.261Z,12.23
2019-03-31T10:02:26.659Z,11.97
2019-03-31T10:04:58.948Z,13.27
2019-03-31T10:07:31.069Z,13.70
2019-03-31T10:10:03.360Z,14.20
2019-03-31T10:12:35.138Z,13.20
2019-03-31T10:15:08.670Z,13.93
2019-03-31T10:17:40.646Z,14.03
2019-03-31T10:20:14.242Z,15.07
2019-03-31T10:22:46.269Z,14.80
2019-03-31T10:25:19.323Z,15.00
2019-03-31T10:27:51.505Z,14.43
2019-03-31T10:30:34.362Z,15.53
2019-03-31T10:33:07.556Z,14.50
2019-03-31T10:35:43.413Z,13.37
2019-03-31T10:38:15.493Z,13.87
2019-03-31T10:40:48.117Z,12.70
2019-03-31T10:43:23.199Z,12.97
2019-03-31T10:45:57.377Z,12.57
2019-03-31T10:48:30.540Z,13.43
2019-03-31T10:51:03.227Z,12.97
2019-03-31T10:53:37.668Z,12.67
2019-03-31T10:56:10.126Z,12.73
2019-03-31T10:58:42.081Z,13.90
2019-03-31T11:01:14.160Z,13.40
2019-03-31T11:03:46.080Z,15.43
2019-03-31T11:06:18.985Z,13.33
2019-03-31T11:08:51.362Z,11.77
2019-03-31T11:11:25.971Z,12.17
2019-03-31T11:13:57.859Z,12.93
2019-03-31T11:16:29.846Z,14.00
2019-03-31T11:19:01.664Z,10.63
2019-03-31T11:21:51.475Z,10.80
2019-03-31T11:24:25.061Z,10.60
2019-03-31T11:27:06.176Z,10.17
2019-03-31T11:29:41.710Z,10.37
2019-03-31T11:32:15.177Z,9.63
2019-03-31T11:34:47.375Z,10.83
2019-03-31T11:37:19.477Z,10.30
2019-03-31T11:39:51.548Z,10.57
2019-03-31T11:42:23.706Z,11.63
2019-03-31T11:44:55.691Z,10.67
2019-03-31T11:47:27.910Z,10.27
2019-03-31T11:50:01.408Z,9.10
2019-03-31T11:52:33.425Z,9.10
2019-03-31T11:55:05.721Z,8.50
2019-03-31T11:57:37.578Z,8.73
2019-03-31T12:00:12.337Z,9.30
2019-03-31T12:02:45.356Z,8.77
2019-03-31T12:05:17.437Z,9.33
2019-03-31T12:07:49.461Z,9.57
2019-03-31T12:10:21.574Z,8.53
2019-03-31T12:12:53.691Z,9.53
2019-03-31T12:15:25.712Z,8.77
2019-03-31T12:17:57.636Z,7.87
2019-03-31T12:20:29.696Z,6.43
2019-03-31T12:23:01.724Z,7.00
2019-03-31T12:25:33.592Z,6.17
2019-03-31T12:28:05.589Z,6.50
2019-03-31T12:30:37.613Z,6.80
2019-03-31T12:33:09.718Z,5.43
2019-03-31T12:35:41.682Z,6.97
2019-03-31T12:38:13.728Z,8.43
2019-03-31T12:40:45.763Z,8.30
2019-03-31T12:43:17.782Z,5.97
2019-03-31T12:45:49.830Z,7.27
2019-03-31T12:48:21.878Z,5.10
2019-03-31T12:50:54.013Z,6.50
2019-03-31T12:53:26.692Z,9.47
2019-03-31T12:56:00.335Z,9.33
2019-03-31T12:58:32.914Z,9.70
2019-03-31T13:01:05.392Z,9.70
2019-03-31T13:03:37.196Z,10.53
2019-03-31T13:06:10.260Z,10.60
2019-03-31T13:08:42.502Z,11.30
2019-03-31T13:11:14.491Z,11.80
2019-03-31T13:13:46.477Z,11.17
2019-03-31T13:16:18.649Z,10.93
2019-03-31T13:18:50.629Z,11.00
2019-03-31T13:21:22.768Z,11.50
2019-03-31T13:23:54.765Z,12.07
2019-03-31T13:26:27.782Z,11.37
2019-03-31T13:28:59.804Z,11.30
2019-03-31T13:31:32.201Z,11.43
2019-03-31T13:34:04.397Z,11.40
2019-03-31T13:36:37.290Z,11.90
2019-03-31T13:39:11.149Z,11.70
2019-03-31T13:41:43.089Z,11.27
2019-03-31T13:44:15.196Z,12.23
2019-03-31T13:46:47.503Z,11.73
2019-03-31T13:49:19.645Z,12.10
2019-03-31T13:51:54.130Z,11.63
2019-03-31T13:54:26.129Z,11.43
2019-03-31T13:56:59.535Z,10.53
2019-03-31T13:59:31.922Z,9.70
2019-03-31T14:02:03.997Z,9.53
2019-03-31T14:04:50.678Z,8.20
2019-03-31T14:07:10.350Z,9.13
2019-03-31T14:09:42.300Z,9.20
2019-03-31T14:12:14.285Z,9.17
2019-03-31T14:14:46.455Z,8.40
2019-03-31T14:17:18.353Z,8.57
2019-03-31T14:19:50.582Z,9.77
2019-03-31T14:22:23.585Z,9.37
2019-03-31T14:25:07.720Z,9.47
2019-03-31T14:27:55.384Z,12.13
2019-03-31T14:30:32.406Z,13.53
2019-03-31T14:33:04.344Z,13.93
2019-03-31T14:35:38.199Z,17.77
2019-03-31T14:38:10.763Z,17.73
2019-03-31T14:40:43.190Z,16.97
2019-03-31T14:43:15.265Z,16.80
2019-03-31T14:45:47.458Z,18.07
2019-03-31T14:48:19.409Z,21.97
2019-03-31T14:50:51.637Z,20.37
2019-03-31T14:53:25.631Z,21.10
2019-03-31T14:55:57.405Z,18.00
2019-03-31T14:58:29.453Z,20.70
2019-03-31T15:01:01.829Z,20.47
2019-03-31T15:03:34.011Z,21.93
2019-03-31T15:06:06.869Z,21.77
2019-03-31T15:08:53.486Z,20.63
2019-03-31T15:11:13.500Z,20.93
2019-03-31T15:13:45.717Z,20.97
2019-03-31T15:16:18.692Z,23.20
2019-03-31T15:18:50.827Z,22.40
2019-03-31T15:21:23.203Z,22.37
2019-03-31T15:23:55.884Z,22.87
2019-03-31T15:26:28.440Z,23.43
2019-03-31T15:29:01.004Z,22.80
2019-03-31T15:31:33.221Z,23.40
2019-03-31T15:34:05.715Z,25.23
2019-03-31T15:36:37.874Z,23.07
2019-03-31T15:39:09.905Z,22.70
2019-03-31T15:41:42.114Z,24.13
2019-03-31T15:44:14.448Z,24.83
2019-03-31T15:46:46.397Z,24.93
2019-03-31T15:49:18.619Z,23.13
2019-03-31T15:51:50.845Z,24.80
2019-03-31T15:54:23.471Z,24.30
2019-03-31T15:56:55.432Z,22.77
2019-03-31T15:59:27.666Z,24.30
2019-03-31T16:01:59.600Z,24.23
2019-03-31T16:04:31.776Z,24.00
2019-03-31T16:07:03.797Z,23.57
2019-03-31T16:09:35.274Z,23.23
2019-03-31T16:12:06.962Z,24.73
2019-03-31T16:14:38.549Z,24.80
2019-03-31T16:17:12.415Z,22.47
2019-03-31T16:19:44.965Z,21.73
2019-03-31T16:22:16.734Z,23.40
2019-03-31T16:24:50.516Z,23.47
2019-03-31T16:27:22.025Z,24.90
2019-03-31T16:29:53.467Z,23.73
2019-03-31T16:32:25.007Z,23.17
2019-03-31T16:34:56.405Z,21.80
2019-03-31T16:37:27.799Z,23.67
2019-03-31T16:39:59.338Z,23.70
2019-03-31T16:42:30.801Z,22.93
2019-03-31T16:45:02.319Z,24.50
2019-03-31T16:47:33.907Z,22.33
2019-03-31T16:50:07.028Z,23.00
2019-03-31T16:52:38.694Z,22.10
2019-03-31T16:55:12.467Z,23.43
2019-03-31T16:57:44.129Z,22.00
2019-03-31T17:00:16.003Z,21.47
2019-03-31T17:02:47.678Z,21.40
2019-03-31T17:05:22.165Z,23.60
2019-03-31T17:07:52.474Z,21.43
2019-03-31T17:10:24.184Z,24.40
2019-03-31T17:12:56.692Z,22.00
2019-03-31T17:15:29.622Z,19.93
2019-03-31T17:18:03.689Z,22.07
2019-03-31T17:20:35.184Z,21.03
2019-03-31T17:23:06.636Z,20.47
2019-03-31T17:25:38.258Z,21.63
2019-03-31T17:28:10.234Z,21.63
2019-03-31T17:30:42.236Z,21.33
2019-03-31T17:33:15.896Z,20.30
2019-03-31T17:35:47.344Z,20.43
2019-03-31T17:38:19.015Z,22.63
2019-03-31T17:40:50.518Z,21.97
2019-03-31T17:43:22.006Z,23.63
2019-03-31T17:45:55.004Z,24.13
2019-03-31T17:48:26.557Z,25.90
2019-03-31T17:50:57.984Z,23.60
2019-03-31T17:53:29.902Z,26.27
2019-03-31T17:56:03.974Z,25.43
2019-03-31T17:58:35.982Z,26.77
2019-03-31T18:01:07.736Z,24.97
2019-03-31T18:03:39.289Z,25.00
2019-03-31T18:06:13.781Z,25.53
2019-03-31T18:08:45.754Z,24.43
2019-03-31T18:11:17.293Z,24.83
2019-03-31T18:13:48.764Z,25.00
2019-03-31T18:16:20.133Z,26.10
2019-03-31T18:18:51.652Z,24.40
2019-03-31T18:21:27.098Z,25.13
2019-03-31T18:23:57.379Z,26.20
2019-03-31T18:26:28.979Z,24.17
2019-03-31T18:29:00.940Z,24.00
2019-03-31T18:31:32.379Z,26.30
2019-03-31T18:34:04.279Z,24.87
2019-03-31T18:36:37.173Z,26.17
2019-03-31T18:39:08.924Z,26.33
2019-03-31T18:41:41.238Z,25.03
2019-03-31T18:44:13.438Z,25.37
2019-03-31T18:46:46.668Z,25.47
2019-03-31T18:49:18.267Z,26.67
2019-03-31T18:51:49.597Z,25.73
2019-03-31T18:54:40.170Z,26.37
2019-03-31T18:57:21.681Z,25.70
2019-03-31T19:00:21.339Z,26.70
2019-03-31T19:03:20.718Z,24.87
2019-03-31T19:06:09.953Z,28.17
2019-03-31T19:08:56.515Z,27.60
2019-03-31T19:11:58.979Z,28.37
2019-03-31T19:14:48.514Z,28.27
2019-03-31T19:17:28.307Z,30.83
2019-03-31T19:20:17.795Z,30.40
2019-03-31T19:23:01.019Z,27.77
2019-03-31T19:25:51.674Z,29.30
2019-03-31T19:28:41.841Z,29.57
2019-03-31T19:31:32.576Z,30.20
2019-03-31T19:34:17.440Z,30.30
2019-03-31T19:37:00.414Z,31.47
2019-03-31T19:39:57.260Z,31.37
2019-03-31T19:42:48.418Z,33.80
2019-03-31T19:45:57.723Z,33.70
2019-03-31T19:48:49.056Z,31.60
2019-03-31T19:51:47.548Z,37.03
2019-03-31T19:54:29.597Z,36.57
2019-03-31T19:57:18.465Z,36.93
2019-03-31T20:00:01.504Z,36.00
2019-03-31T20:02:47.641Z,35.37
2019-03-31T20:05:44.315Z,35.87
2019-03-31T20:08:38.178Z,36.77
2019-03-31T20:11:27.034Z,35.30
2019-03-31T20:14:11.398Z,35.53
2019-03-31T20:17:02.079Z,35.40
2019-03-31T20:20:04.193Z,34.47
2019-03-31T20:23:07.109Z,35.87
2019-03-31T20:25:46.943Z,33.43
2019-03-31T20:28:42.313Z,32.77
2019-03-31T20:31:31.293Z,32.30
2019-03-31T20:34:39.902Z,34.27
2019-03-31T20:37:20.384Z,34.90
2019-03-31T20:40:14.871Z,35.93
2019-03-31T20:43:08.162Z,37.80
2019-03-31T20:45:39.963Z,44.90
2019-03-31T20:48:11.766Z,34.87
2019-03-31T20:50:43.366Z,33.83
2019-03-31T20:53:14.868Z,30.60
2019-03-31T20:55:46.296Z,32.83
2019-03-31T20:58:19.074Z,35.10
2019-03-31T21:00:50.850Z,33.90
2019-03-31T21:03:22.479Z,31.87
2019-03-31T21:05:54.747Z,30.40
2019-03-31T21:08:26.540Z,31.23
2019-03-31T21:10:58.128Z,30.63
2019-03-31T21:13:31.095Z,28.80
2019-03-31T21:16:03.395Z,31.63
2019-03-31T21:18:35.178Z,29.27
2019-03-31T21:21:06.803Z,29.07
2019-03-31T21:23:38.846Z,29.90
2019-03-31T21:26:10.185Z,28.83
2019-03-31T21:28:41.776Z,28.03
2019-03-31T21:31:13.870Z,29.13
2019-03-31T21:33:46.569Z,29.17
2019-03-31T21:36:18.165Z,29.80
2019-03-31T21:38:49.901Z,27.23
2019-03-31T21:41:21.873Z,27.70
2019-03-31T21:43:53.454Z,29.30
2019-03-31T21:46:24.841Z,25.97
2019-03-31T21:48:56.489Z,27.57
2019-03-31T21:51:28.129Z,27.33
2019-03-31T21:53:59.780Z,26.80
2019-03-31T21:56:31.339Z,27.80
2019-03-31T21:59:02.749Z,26.83
2019-03-31T22:01:34.695Z,25.60
2019-03-31T22:04:06.442Z,25.10
2019-03-31T22:06:38.006Z,25.90
2019-03-31T22:09:11.158Z,27.00
2019-03-31T22:11:42.938Z,24.73
2019-03-31T22:14:14.466Z,25.70
2019-03-31T22:16:46.474Z,26.93
2019-03-31T22:19:18.557Z,24.57
2019-03-31T22:21:50.180Z,26.27
2019-03-31T22:24:21.997Z,23.83
2019-03-31T22:26:53.591Z,26.27
2019-03-31T22:29:25.168Z,24.57
2019-03-31T22:31:56.661Z,26.77
2019-03-31T22:34:28.108Z,30.17
2019-03-31T22:36:59.802Z,30.40
2019-03-31T22:39:31.444Z,30.67
2019-03-31T22:42:02.870Z,30.67
2019-03-31T22:44:34.481Z,30.20
2019-03-31T22:47:05.889Z,31.13
2019-03-31T22:49:37.449Z,31.63
2019-03-31T22:52:08.983Z,30.93
2019-03-31T22:54:40.485Z,29.90
2019-03-31T22:57:17.303Z,31.90
2019-03-31T22:59:50.275Z,31.57
2019-03-31T23:02:24.208Z,31.03
2019-03-31T23:04:55.703Z,29.37
2019-03-31T23:07:27.118Z,32.80
2019-03-31T23:09:58.480Z,32.37
2019-03-31T23:12:29.962Z,31.63
2019-03-31T23:15:01.425Z,30.17
2019-03-31T23:17:33.081Z,30.90
2019-03-31T23:20:04.656Z,30.63
2019-03-31T23:22:36.329Z,30.17
2019-03-31T23:25:07.851Z,29.60
2019-03-31T23:27:39.248Z,32.43
2019-03-31T23:30:11.450Z,33.70
2019-03-31T23:32:42.899Z,31.57
2019-03-31T23:35:14.566Z,30.40
2019-03-31T23:37:45.961Z,30.27
2019-03-31T23:40:17.506Z,31.80
2019-03-31T23:42:48.887Z,31.87
2019-03-31T23:45:23.482Z,31.13
2019-03-31T23:47:56.290Z,30.10
2019-03-31T23:50:28.208Z,30.97
2019-03-31T23:52:59.666Z,31.90
2019-03-31T23:55:31.309Z,32.77
2019-03-31T23:58:02.724Z,32.53
